createdAt,value
2022-09-28T00:02:13.044Z,2.47
2022-09-28T00:04:39.701Z,2.45
2022-09-28T00:07:06.343Z,2.22
2022-09-28T00:09:32.935Z,2.47
2022-09-28T00:11:59.855Z,2.30
2022-09-28T00:14:26.550Z,2.50
2022-09-28T00:16:53.222Z,2.60
2022-09-28T00:19:19.823Z,2.55
2022-09-28T00:21:46.537Z,2.38
2022-09-28T00:24:19.049Z,2.22
2022-09-28T00:26:54.109Z,2.17
2022-09-28T00:29:24.778Z,2.58
2022-09-28T00:31:53.570Z,2.63
2022-09-28T00:34:20.759Z,2.30
2022-09-28T00:36:48.218Z,2.50
2022-09-28T00:39:15.884Z,2.55
2022-09-28T00:41:43.345Z,2.28
2022-09-28T00:44:31.646Z,2.28
2022-09-28T00:47:00.616Z,2.20
2022-09-28T00:49:40.405Z,2.40
2022-09-28T00:52:08.521Z,2.28
2022-09-28T00:54:35.886Z,2.20
2022-09-28T00:57:03.997Z,2.10
2022-09-28T00:59:32.798Z,2.10
2022-09-28T01:01:59.967Z,2.30
2022-09-28T01:04:29.849Z,2.22
2022-09-28T01:06:58.844Z,2.10
2022-09-28T01:09:27.270Z,2.30
2022-09-28T01:11:55.153Z,2.00
2022-09-28T01:14:25.540Z,2.03
2022-09-28T01:19:59.172Z,2.50
2022-09-28T01:22:35.022Z,2.28
2022-09-28T01:25:25.010Z,2.30
2022-09-28T01:27:57.388Z,2.72
2022-09-28T01:30:24.259Z,2.40
2022-09-28T01:32:58.356Z,2.30
2022-09-28T01:35:31.076Z,2.15
2022-09-28T01:38:21.576Z,2.60
2022-09-28T01:43:25.837Z,2.38
2022-09-28T01:46:01.059Z,2.40
2022-09-28T01:48:40.095Z,2.30
2022-09-28T01:51:12.611Z,2.65
2022-09-28T01:53:53.157Z,2.33
2022-09-28T01:56:35.116Z,2.20
2022-09-28T01:59:25.649Z,2.58
2022-09-28T02:04:40.520Z,2.20
2022-09-28T02:07:31.549Z,2.60
2022-09-28T02:10:05.476Z,2.35
2022-09-28T02:12:40.315Z,2.50
2022-09-28T02:15:19.938Z,2.80
2022-09-28T02:17:46.946Z,2.50
2022-09-28T02:20:14.909Z,2.80
2022-09-28T02:22:49.904Z,3.10
2022-09-28T02:25:36.279Z,2.83
2022-09-28T02:28:06.021Z,2.83
2022-09-28T02:30:36.548Z,3.33
2022-09-28T02:33:12.289Z,2.80
2022-09-28T02:35:41.660Z,3.10
2022-09-28T02:38:10.144Z,3.05
2022-09-28T02:40:38.087Z,3.22
2022-09-28T02:43:33.433Z,3.38
2022-09-28T02:46:22.564Z,3.20
2022-09-28T02:49:20.186Z,2.85
2022-09-28T02:52:13.849Z,3.20
2022-09-28T02:55:08.302Z,3.30
2022-09-28T02:58:01.975Z,3.10
2022-09-28T03:00:30.923Z,3.10
2022-09-28T03:03:06.804Z,2.90
2022-09-28T03:05:45.598Z,3.10
2022-09-28T03:08:26.667Z,2.97
2022-09-28T03:11:03.964Z,2.80
2022-09-28T03:13:31.643Z,3.15
2022-09-28T03:16:13.807Z,2.65
2022-09-28T03:18:41.126Z,2.83
2022-09-28T03:21:09.310Z,2.88
2022-09-28T03:23:36.005Z,2.75
2022-09-28T03:26:02.641Z,2.67
2022-09-28T03:28:29.602Z,2.90
2022-09-28T03:30:56.707Z,3.67
2022-09-28T03:33:23.441Z,3.40
2022-09-28T03:35:50.611Z,3.30
2022-09-28T03:38:20.954Z,3.17
2022-09-28T03:40:59.004Z,2.83
2022-09-28T03:43:27.160Z,3.20
2022-09-28T03:45:54.623Z,2.70
2022-09-28T03:48:26.675Z,3.00
2022-09-28T03:50:57.681Z,2.95
2022-09-28T03:53:25.140Z,3.05
2022-09-28T03:55:53.298Z,3.00
2022-09-28T03:58:23.328Z,2.95
2022-09-28T04:00:50.331Z,2.72
2022-09-28T04:03:17.041Z,3.10
2022-09-28T04:05:51.850Z,3.20
2022-09-28T04:08:19.134Z,2.95
2022-09-28T04:10:46.051Z,3.10
2022-09-28T04:13:12.974Z,3.00
2022-09-28T04:15:39.666Z,2.92
2022-09-28T04:18:11.187Z,3.03
2022-09-28T04:20:40.886Z,2.85
2022-09-28T04:23:07.581Z,2.72
2022-09-28T04:25:34.203Z,2.90
2022-09-28T04:28:19.431Z,2.78
2022-09-28T04:30:47.691Z,2.55
2022-09-28T04:33:14.380Z,3.13
2022-09-28T04:35:41.136Z,2.50
2022-09-28T04:38:07.754Z,2.63
2022-09-28T04:40:34.417Z,2.75
2022-09-28T04:43:01.078Z,2.65
2022-09-28T04:45:28.514Z,2.60
2022-09-28T04:47:55.209Z,2.35
2022-09-28T04:50:21.953Z,2.80
2022-09-28T04:52:48.686Z,2.78
2022-09-28T04:55:16.874Z,2.88
2022-09-28T04:57:43.491Z,2.70
2022-09-28T05:00:10.943Z,2.38
2022-09-28T05:02:37.661Z,2.50
2022-09-28T05:05:04.633Z,2.20
2022-09-28T05:07:31.333Z,2.53
2022-09-28T05:09:58.033Z,2.50
2022-09-28T05:12:24.769Z,2.17
2022-09-28T05:14:51.399Z,2.50
2022-09-28T05:17:18.035Z,2.35
2022-09-28T05:19:44.649Z,2.40
2022-09-28T05:22:14.742Z,2.40
2022-09-28T05:24:41.649Z,2.45
2022-09-28T05:27:08.410Z,2.40
2022-09-28T05:29:35.154Z,2.85
2022-09-28T05:32:02.186Z,2.63
2022-09-28T05:34:29.285Z,2.28
2022-09-28T05:36:55.970Z,2.40
2022-09-28T05:39:22.610Z,2.60
2022-09-28T05:41:49.455Z,3.47
2022-09-28T05:44:16.205Z,3.10
2022-09-28T05:46:42.894Z,2.60
2022-09-28T05:49:09.572Z,2.30
2022-09-28T05:51:36.250Z,2.50
2022-09-28T05:54:06.035Z,2.55
2022-09-28T05:56:33.390Z,2.00
2022-09-28T05:59:00.038Z,2.55
2022-09-28T06:01:26.861Z,2.65
2022-09-28T06:03:53.541Z,3.30
2022-09-28T06:06:20.274Z,3.15
2022-09-28T06:08:48.461Z,2.58
2022-09-28T06:11:15.169Z,2.58
2022-09-28T06:13:41.824Z,2.38
2022-09-28T06:16:09.170Z,2.42
2022-09-28T06:18:35.883Z,2.88
2022-09-28T06:21:02.796Z,3.30
2022-09-28T06:23:29.458Z,3.42
2022-09-28T06:25:56.104Z,4.10
2022-09-28T06:28:22.784Z,3.55
2022-09-28T06:30:49.581Z,3.60
2022-09-28T06:33:16.419Z,3.53
2022-09-28T06:35:43.092Z,3.00
2022-09-28T06:38:10.312Z,3.20
2022-09-28T06:40:37.761Z,2.90
2022-09-28T06:43:10.150Z,3.00
2022-09-28T06:45:38.034Z,2.80
2022-09-28T06:48:05.545Z,3.00
2022-09-28T06:50:37.336Z,3.15
2022-09-28T06:53:06.771Z,3.47
2022-09-28T06:55:33.675Z,2.65
2022-09-28T06:58:02.819Z,3.10
2022-09-28T07:00:33.837Z,3.80
2022-09-28T07:03:02.687Z,2.97
2022-09-28T07:05:29.974Z,3.05
2022-09-28T07:07:57.279Z,3.08
2022-09-28T07:10:27.727Z,2.97
2022-09-28T07:15:22.156Z,2.80
2022-09-28T07:17:59.983Z,2.60
2022-09-28T07:20:29.954Z,2.93
2022-09-28T07:23:09.664Z,2.70
2022-09-28T07:25:45.607Z,3.22
2022-09-28T07:28:12.527Z,3.17
2022-09-28T07:30:39.832Z,2.78
2022-09-28T07:33:09.387Z,2.80
2022-09-28T07:35:36.124Z,3.08
2022-09-28T07:38:05.477Z,2.58
2022-09-28T07:40:52.550Z,2.65
2022-09-28T07:43:23.094Z,2.40
2022-09-28T07:45:54.852Z,2.70
2022-09-28T07:48:22.550Z,2.85
2022-09-28T07:50:53.820Z,2.95
2022-09-28T07:53:22.895Z,3.30
2022-09-28T07:55:52.781Z,2.80
2022-09-28T07:58:20.740Z,2.33
2022-09-28T08:00:49.084Z,2.70
2022-09-28T08:03:17.957Z,2.10
2022-09-28T08:05:47.420Z,2.50
2022-09-28T08:08:15.054Z,2.47
2022-09-28T08:10:47.326Z,2.38
2022-09-28T08:13:16.278Z,2.47
2022-09-28T08:15:43.035Z,2.83
2022-09-28T08:18:10.054Z,2.33
2022-09-28T08:20:55.743Z,2.30
2022-09-28T08:23:23.486Z,3.08
2022-09-28T08:25:53.860Z,2.20
2022-09-28T08:30:49.611Z,2.10
2022-09-28T08:33:17.975Z,2.00
2022-09-28T08:35:45.934Z,1.92
2022-09-28T08:38:13.578Z,1.77
2022-09-28T08:41:27.006Z,1.77
2022-09-28T08:44:09.530Z,1.60
2022-09-28T08:46:42.443Z,1.50
2022-09-28T08:49:25.410Z,1.55
2022-09-28T08:52:16.316Z,1.50
2022-09-28T08:54:57.820Z,1.58
2022-09-28T08:57:45.760Z,1.10
2022-09-28T09:00:21.222Z,1.00
2022-09-28T09:02:48.724Z,0.90
2022-09-28T09:05:19.928Z,1.10
2022-09-28T09:08:08.064Z,1.15
2022-09-28T09:11:02.406Z,1.00
2022-09-28T09:14:00.212Z,1.00
2022-09-28T09:16:39.067Z,1.33
2022-09-28T09:19:08.380Z,1.23
2022-09-28T09:21:43.392Z,1.23
2022-09-28T09:24:34.260Z,1.00
2022-09-28T09:27:27.271Z,1.00
2022-09-28T09:30:09.368Z,0.90
2022-09-28T09:33:00.022Z,1.00
2022-09-28T09:35:43.049Z,1.10
2022-09-28T09:38:41.305Z,1.00
2022-09-28T09:41:40.876Z,1.20
2022-09-28T09:44:19.351Z,1.30
2022-09-28T09:46:55.989Z,1.20
2022-09-28T09:49:29.053Z,1.00
2022-09-28T09:52:11.263Z,1.00
2022-09-28T09:55:10.450Z,1.00
2022-09-28T09:57:50.923Z,0.98
2022-09-28T10:02:48.130Z,1.15
2022-09-28T10:08:03.202Z,1.02
2022-09-28T10:10:37.872Z,0.85
2022-09-28T10:13:05.097Z,0.90
2022-09-28T10:15:33.491Z,0.90
2022-09-28T10:18:06.785Z,0.80
2022-09-28T10:20:37.269Z,1.10
2022-09-28T10:23:06.739Z,0.93
2022-09-28T10:25:37.827Z,0.70
2022-09-28T10:28:06.904Z,1.10
2022-09-28T10:30:44.428Z,0.95
2022-09-28T10:33:33.395Z,1.10
2022-09-28T10:36:01.828Z,0.90
2022-09-28T10:38:30.223Z,0.80
2022-09-28T10:41:10.395Z,0.95
2022-09-28T10:44:05.991Z,1.00
2022-09-28T10:46:38.087Z,0.80
2022-09-28T10:49:12.469Z,1.05
2022-09-28T10:52:08.636Z,0.80
2022-09-28T10:54:36.990Z,0.70
2022-09-28T10:57:03.700Z,0.90
2022-09-28T10:59:30.302Z,0.80
2022-09-28T11:02:09.518Z,0.80
2022-09-28T11:04:42.103Z,0.80
2022-09-28T11:07:18.661Z,0.93
2022-09-28T11:09:49.530Z,0.77
2022-09-28T11:12:20.394Z,1.00
2022-09-28T11:14:52.730Z,0.90
2022-09-28T11:17:29.095Z,1.00
2022-09-28T11:20:26.996Z,1.10
2022-09-28T11:22:57.222Z,1.00
2022-09-28T11:25:26.871Z,1.00
2022-09-28T11:27:53.498Z,1.00
2022-09-28T11:30:26.316Z,0.90
2022-09-28T11:32:56.469Z,0.88
2022-09-28T11:35:42.308Z,0.80
2022-09-28T11:38:23.986Z,0.80
2022-09-28T11:41:05.303Z,0.90
2022-09-28T11:43:50.479Z,0.88
2022-09-28T11:46:50.400Z,0.90
2022-09-28T11:49:20.072Z,0.90
2022-09-28T11:51:49.342Z,0.85
2022-09-28T11:54:21.769Z,0.98
2022-09-28T11:56:50.985Z,0.70
2022-09-28T11:59:24.043Z,0.70
2022-09-28T12:01:56.564Z,0.80
2022-09-28T12:04:31.933Z,0.90
2022-09-28T12:07:02.958Z,0.95
2022-09-28T12:09:48.485Z,1.00
2022-09-28T12:12:28.279Z,1.20
2022-09-28T12:15:00.460Z,1.58
2022-09-28T12:17:35.650Z,1.10
2022-09-28T12:20:24.362Z,1.15
2022-09-28T12:22:59.582Z,1.00
2022-09-28T12:25:29.802Z,1.20
2022-09-28T12:28:02.437Z,0.95
2022-09-28T12:30:35.049Z,1.10
2022-09-28T12:33:17.559Z,0.93
2022-09-28T12:35:52.171Z,1.02
2022-09-28T12:38:24.809Z,0.88
2022-09-28T12:40:59.083Z,1.00
2022-09-28T12:44:03.913Z,1.00
2022-09-28T12:47:06.029Z,1.40
2022-09-28T12:53:02.931Z,1.40
2022-09-28T12:55:33.729Z,1.33
2022-09-28T13:00:53.529Z,1.40
2022-09-28T13:03:45.691Z,1.38
2022-09-28T13:06:18.064Z,2.30
2022-09-28T13:08:55.227Z,1.77
2022-09-28T13:11:36.048Z,1.10
2022-09-28T13:14:43.271Z,25.08
2022-09-28T13:17:26.373Z,2.00
2022-09-28T13:20:16.380Z,1.48
2022-09-28T13:23:07.928Z,2.75
2022-09-28T13:25:36.332Z,11.10
2022-09-28T13:28:05.591Z,3.20
2022-09-28T13:30:36.233Z,2.00
2022-09-28T13:33:05.812Z,1.50
2022-09-28T13:35:33.410Z,1.77
2022-09-28T13:38:18.247Z,15.05
2022-09-28T13:41:05.228Z,18.65
2022-09-28T13:43:41.375Z,10.32
2022-09-28T13:46:34.409Z,3.17
2022-09-28T13:49:18.366Z,3.08
2022-09-28T13:51:51.652Z,3.47
2022-09-28T13:54:41.346Z,3.00
2022-09-28T13:57:11.246Z,2.63
2022-09-28T14:00:13.871Z,3.30
2022-09-28T14:03:23.976Z,2.00
2022-09-28T14:06:05.660Z,1.90
2022-09-28T14:08:39.356Z,1.85
2022-09-28T14:11:34.928Z,1.70
2022-09-28T14:14:14.087Z,2.17
2022-09-28T14:16:42.199Z,2.10
2022-09-28T14:19:12.714Z,2.35
2022-09-28T14:21:53.537Z,2.95
2022-09-28T14:24:35.257Z,2.35
2022-09-28T14:27:08.173Z,1.30
2022-09-28T14:29:37.731Z,1.50
2022-09-28T14:32:09.948Z,1.13
2022-09-28T14:34:45.687Z,1.60
2022-09-28T14:37:50.244Z,1.52
2022-09-28T14:40:37.641Z,1.15
2022-09-28T14:43:41.869Z,1.50
2022-09-28T14:46:11.341Z,1.13
2022-09-28T14:48:58.407Z,1.10
2022-09-28T14:51:26.138Z,1.10
2022-09-28T14:53:55.263Z,1.20
2022-09-28T14:56:22.190Z,1.10
2022-09-28T14:58:54.869Z,1.10
2022-09-28T15:01:24.692Z,1.10
2022-09-28T15:04:04.613Z,1.40
2022-09-28T15:06:46.503Z,1.20
2022-09-28T15:09:33.039Z,1.13
2022-09-28T15:12:13.088Z,1.30
2022-09-28T15:14:53.059Z,1.33
2022-09-28T15:17:27.222Z,1.10
2022-09-28T15:20:24.593Z,1.70
2022-09-28T15:22:57.247Z,1.40
2022-09-28T15:25:29.751Z,1.40
2022-09-28T15:28:02.364Z,1.10
2022-09-28T15:30:36.382Z,1.20
2022-09-28T15:33:23.239Z,1.13
2022-09-28T15:36:06.710Z,2.20
2022-09-28T15:38:34.931Z,1.70
2022-09-28T15:41:06.723Z,1.15
2022-09-28T15:43:34.663Z,1.10
2022-09-28T15:46:20.548Z,0.90
2022-09-28T15:48:55.741Z,0.98
2022-09-28T15:51:24.470Z,1.13
2022-09-28T15:54:09.566Z,0.90
2022-09-28T15:56:55.285Z,0.88
2022-09-28T15:59:40.564Z,0.70
2022-09-28T16:02:22.614Z,0.80
2022-09-28T16:05:00.848Z,1.00
2022-09-28T16:07:41.518Z,1.05
2022-09-28T16:10:14.374Z,1.50
2022-09-28T16:13:08.214Z,1.45
2022-09-28T16:15:37.684Z,1.30
2022-09-28T16:18:11.404Z,1.50
2022-09-28T16:20:40.356Z,1.30
2022-09-28T16:23:26.805Z,0.80
2022-09-28T16:26:03.018Z,1.15
2022-09-28T16:28:38.415Z,1.60
2022-09-28T16:31:22.113Z,1.58
2022-09-28T16:33:54.992Z,1.50
2022-09-28T16:36:22.593Z,1.55
2022-09-28T16:38:49.723Z,1.65
2022-09-28T16:41:20.574Z,1.80
2022-09-28T16:43:47.955Z,1.60
2022-09-28T16:46:17.860Z,2.55
2022-09-28T16:48:49.249Z,1.40
2022-09-28T16:51:21.646Z,1.88
2022-09-28T16:54:07.406Z,1.60
2022-09-28T16:56:36.161Z,1.73
2022-09-28T16:59:03.197Z,1.85
2022-09-28T17:01:31.178Z,1.80
2022-09-28T17:03:58.150Z,1.80
2022-09-28T17:06:25.490Z,2.25
2022-09-28T17:08:54.240Z,2.05
2022-09-28T17:11:24.743Z,1.98
2022-09-28T17:13:52.270Z,1.80
2022-09-28T17:16:32.609Z,1.92
2022-09-28T17:19:20.959Z,2.20
2022-09-28T17:21:48.205Z,2.60
2022-09-28T17:24:14.860Z,2.58
2022-09-28T17:26:44.299Z,2.30
2022-09-28T17:29:14.539Z,2.83
2022-09-28T17:34:10.788Z,2.10
2022-09-28T17:36:37.731Z,2.67
2022-09-28T17:39:06.258Z,3.30
2022-09-28T17:41:34.203Z,2.90
2022-09-28T17:44:01.762Z,2.47
2022-09-28T17:46:34.651Z,1.77
2022-09-28T17:49:04.274Z,2.08
2022-09-28T17:51:37.494Z,1.90
2022-09-28T17:54:06.801Z,2.00
2022-09-28T17:56:34.433Z,2.08
2022-09-28T17:59:04.763Z,2.55
2022-09-28T18:04:03.118Z,2.58
2022-09-28T18:06:29.901Z,2.95
2022-09-28T18:08:56.593Z,3.20
2022-09-28T18:11:23.578Z,3.42
2022-09-28T18:13:50.329Z,3.00
2022-09-28T18:16:17.624Z,3.28
2022-09-28T18:18:44.421Z,2.80
2022-09-28T18:21:11.180Z,2.70
2022-09-28T18:23:38.833Z,3.03
2022-09-28T18:26:15.206Z,3.00
2022-09-28T18:28:42.113Z,3.20
2022-09-28T18:31:13.569Z,3.10
2022-09-28T18:33:40.747Z,2.92
2022-09-28T18:36:07.935Z,2.92
2022-09-28T18:38:38.298Z,2.60
2022-09-28T18:43:41.655Z,3.20
2022-09-28T18:46:10.058Z,3.85
2022-09-28T18:48:37.872Z,5.10
2022-09-28T18:51:09.417Z,5.30
2022-09-28T18:53:36.710Z,5.32
2022-09-28T18:56:11.599Z,5.13
2022-09-28T18:58:39.521Z,5.57
2022-09-28T19:01:33.506Z,5.03
2022-09-28T19:04:05.866Z,4.90
2022-09-28T19:06:34.296Z,4.97
2022-09-28T19:09:01.399Z,5.30
2022-09-28T19:11:28.657Z,5.18
2022-09-28T19:13:56.114Z,5.20
2022-09-28T19:16:26.268Z,6.03
2022-09-28T19:18:53.530Z,6.60
2022-09-28T19:21:20.981Z,6.40
2022-09-28T19:23:49.737Z,5.20
2022-09-28T19:26:26.862Z,4.90
2022-09-28T19:28:55.021Z,5.60
2022-09-28T19:31:22.211Z,6.63
2022-09-28T19:33:49.910Z,5.35
2022-09-28T19:36:21.837Z,6.53
2022-09-28T19:38:48.490Z,6.95
2022-09-28T19:41:49.287Z,7.07
2022-09-28T19:44:24.261Z,8.85
2022-09-28T19:46:55.616Z,7.35
2022-09-28T19:49:23.887Z,5.30
2022-09-28T19:52:12.253Z,5.30
2022-09-28T19:54:41.119Z,4.28
2022-09-28T19:57:08.647Z,4.18
2022-09-28T19:59:36.715Z,4.40
2022-09-28T20:02:04.618Z,4.40
2022-09-28T20:04:31.301Z,4.10
2022-09-28T20:06:57.954Z,4.40
2022-09-28T20:09:24.662Z,4.63
2022-09-28T20:11:51.868Z,5.40
2022-09-28T20:14:18.849Z,6.15
2022-09-28T20:16:48.315Z,5.38
2022-09-28T20:19:15.575Z,6.13
2022-09-28T20:21:42.238Z,6.10
2022-09-28T20:24:11.997Z,8.38
2022-09-28T20:26:39.075Z,14.55
2022-09-28T20:29:07.374Z,13.23
2022-09-28T20:31:38.611Z,10.25
2022-09-28T20:34:05.876Z,7.60
2022-09-28T20:36:33.024Z,5.82
2022-09-28T20:39:03.866Z,5.25
2022-09-28T20:41:36.833Z,5.35
2022-09-28T20:44:06.398Z,4.85
2022-09-28T20:46:34.864Z,4.47
2022-09-28T20:49:01.846Z,4.03
2022-09-28T20:51:28.748Z,4.50
2022-09-28T20:53:57.018Z,5.47
2022-09-28T20:56:26.394Z,6.40
2022-09-28T20:58:54.013Z,6.90
2022-09-28T21:01:26.580Z,4.90
2022-09-28T21:03:55.170Z,4.15
2022-09-28T21:06:24.972Z,3.90
2022-09-28T21:08:52.021Z,3.15
2022-09-28T21:11:21.813Z,2.70
2022-09-28T21:13:52.474Z,3.03
2022-09-28T21:16:19.102Z,2.90
2022-09-28T21:18:46.798Z,3.70
2022-09-28T21:21:15.609Z,4.25
2022-09-28T21:23:45.078Z,3.70
2022-09-28T21:26:13.180Z,3.60
2022-09-28T21:28:40.270Z,3.88
2022-09-28T21:31:10.078Z,4.30
2022-09-28T21:33:37.253Z,8.73
2022-09-28T21:36:06.667Z,11.60
2022-09-28T21:38:34.746Z,7.10
2022-09-28T21:41:01.646Z,4.70
2022-09-28T21:43:29.897Z,4.10
2022-09-28T21:45:58.087Z,4.10
2022-09-28T21:48:26.909Z,3.92
2022-09-28T21:51:04.946Z,3.20
2022-09-28T21:53:33.722Z,3.45
2022-09-28T21:56:01.253Z,3.60
2022-09-28T21:58:30.202Z,3.80
2022-09-28T22:01:13.049Z,4.60
2022-09-28T22:03:40.600Z,4.40
2022-09-28T22:06:07.973Z,4.53
2022-09-28T22:08:36.303Z,4.03
2022-09-28T22:11:08.642Z,4.93
2022-09-28T22:13:43.933Z,5.07
2022-09-28T22:16:11.543Z,4.10
2022-09-28T22:18:38.392Z,3.78
2022-09-28T22:21:09.737Z,3.67
2022-09-28T22:23:37.936Z,3.33
2022-09-28T22:26:12.483Z,3.55
2022-09-28T22:28:44.437Z,3.58
2022-09-28T22:31:11.181Z,3.60
2022-09-28T22:33:37.892Z,3.38
2022-09-28T22:36:04.753Z,3.50
2022-09-28T22:38:32.001Z,3.75
2022-09-28T22:40:58.694Z,3.60
2022-09-28T22:43:26.915Z,4.00
2022-09-28T22:46:18.393Z,3.67
2022-09-28T22:48:53.265Z,4.07
2022-09-28T22:51:21.197Z,4.30
2022-09-28T22:53:48.340Z,4.38
2022-09-28T22:56:18.710Z,4.40
2022-09-28T22:58:46.226Z,8.35
2022-09-28T23:01:15.764Z,9.98
2022-09-28T23:03:42.714Z,7.93
2022-09-28T23:06:11.193Z,7.32
2022-09-28T23:08:38.529Z,8.65
2022-09-28T23:11:05.831Z,7.82
2022-09-28T23:13:32.493Z,9.82
2022-09-28T23:16:05.011Z,8.63
2022-09-28T23:18:34.589Z,10.32
2022-09-28T23:21:06.670Z,7.90
2022-09-28T23:23:34.311Z,8.13
2022-09-28T23:26:09.715Z,7.78
2022-09-28T23:28:36.349Z,8.00
2022-09-28T23:31:12.004Z,8.27
2022-09-28T23:33:38.666Z,10.00
2022-09-28T23:36:05.824Z,11.30
2022-09-28T23:38:32.669Z,10.50
2022-09-28T23:40:59.669Z,9.63
2022-09-28T23:43:26.400Z,9.02
2022-09-28T23:45:53.026Z,8.27
2022-09-28T23:48:19.663Z,7.13
2022-09-28T23:50:46.607Z,6.72
2022-09-28T23:53:14.388Z,7.30
2022-09-28T23:55:42.490Z,7.30
2022-09-28T23:58:10.188Z,6.80
